createdAt,value
2022-10-02T00:01:51.491Z,20.40
2022-10-02T00:04:25.847Z,19.15
2022-10-02T00:06:59.454Z,17.17
2022-10-02T00:09:33.114Z,13.95
2022-10-02T00:12:02.060Z,14.80
2022-10-02T00:14:36.503Z,15.25
2022-10-02T00:17:07.719Z,14.38
2022-10-02T00:19:35.586Z,14.73
2022-10-02T00:22:23.397Z,18.55
2022-10-02T00:24:58.819Z,19.30
2022-10-02T00:27:41.411Z,20.67
2022-10-02T00:30:12.633Z,19.77
2022-10-02T00:32:54.679Z,20.70
2022-10-02T00:35:57.366Z,19.15
2022-10-02T00:38:37.238Z,21.00
2022-10-02T00:41:22.005Z,19.00
2022-10-02T00:44:07.105Z,22.85
2022-10-02T00:46:46.575Z,20.80
2022-10-02T00:49:33.322Z,19.70
2022-10-02T00:52:22.072Z,18.35
2022-10-02T00:55:04.608Z,18.08
2022-10-02T00:57:49.448Z,19.10
2022-10-02T01:00:19.711Z,17.80
2022-10-02T01:03:09.896Z,18.02
2022-10-02T01:05:40.124Z,19.90
2022-10-02T01:08:09.305Z,18.65
2022-10-02T01:10:39.219Z,19.00
2022-10-02T01:13:07.899Z,15.65
2022-10-02T01:15:39.067Z,16.20
2022-10-02T01:18:08.818Z,15.60
2022-10-02T01:20:41.773Z,15.52
2022-10-02T01:23:24.590Z,16.08
2022-10-02T01:25:54.072Z,18.67
2022-10-02T01:28:23.269Z,17.53
2022-10-02T01:30:56.016Z,18.48
2022-10-02T01:33:24.242Z,18.40
2022-10-02T01:35:52.499Z,17.48
2022-10-02T01:38:23.840Z,17.92
2022-10-02T01:40:53.089Z,19.10
2022-10-02T01:43:23.950Z,19.42
2022-10-02T01:46:28.895Z,19.23
2022-10-02T01:49:06.927Z,18.55
2022-10-02T01:51:50.229Z,17.13
2022-10-02T01:54:26.238Z,16.63
2022-10-02T01:57:07.632Z,16.88
2022-10-02T01:59:48.709Z,18.15
2022-10-02T02:02:24.465Z,16.10
2022-10-02T02:04:59.418Z,15.57
2022-10-02T02:07:35.692Z,17.20
2022-10-02T02:10:14.183Z,16.13
2022-10-02T02:12:48.553Z,16.60
2022-10-02T02:15:21.694Z,17.88
2022-10-02T02:17:55.790Z,17.50
2022-10-02T02:20:29.590Z,18.98
2022-10-02T02:23:05.298Z,21.08
2022-10-02T02:25:37.926Z,18.85
2022-10-02T02:28:10.593Z,23.15
2022-10-02T02:30:41.321Z,23.00
2022-10-02T02:33:16.469Z,23.00
2022-10-02T02:35:48.092Z,19.85
2022-10-02T02:38:23.172Z,21.50
2022-10-02T02:40:52.951Z,19.13
2022-10-02T02:43:27.061Z,20.77
2022-10-02T02:45:58.693Z,20.13
2022-10-02T02:48:30.792Z,21.20
2022-10-02T02:51:03.723Z,21.25
2022-10-02T02:53:36.497Z,20.08
2022-10-02T02:56:07.411Z,19.92
2022-10-02T02:58:41.747Z,19.13
2022-10-02T03:01:09.843Z,18.80
2022-10-02T03:03:37.807Z,17.90
2022-10-02T03:06:25.543Z,17.25
2022-10-02T03:08:54.837Z,16.13
2022-10-02T03:11:34.357Z,16.38
2022-10-02T03:14:11.909Z,15.67
2022-10-02T03:16:49.114Z,14.77
2022-10-02T03:19:32.624Z,14.98
2022-10-02T03:22:11.818Z,14.50
2022-10-02T03:24:48.083Z,15.57
2022-10-02T03:27:21.963Z,14.88
2022-10-02T03:29:58.176Z,15.73
2022-10-02T03:32:28.056Z,13.65
2022-10-02T03:34:57.189Z,12.55
2022-10-02T03:37:26.506Z,13.77
2022-10-02T03:39:54.393Z,12.48
2022-10-02T03:42:28.071Z,12.93
2022-10-02T03:44:57.304Z,12.52
2022-10-02T03:47:25.161Z,12.60
2022-10-02T03:49:53.075Z,15.00
2022-10-02T03:52:23.464Z,13.82
2022-10-02T03:57:25.663Z,12.95
2022-10-02T04:00:02.856Z,13.45
2022-10-02T04:02:36.230Z,13.65
2022-10-02T04:05:15.366Z,15.40
2022-10-02T04:07:52.414Z,14.55
2022-10-02T04:10:33.644Z,13.95
2022-10-02T04:13:12.988Z,13.75
2022-10-02T04:15:54.879Z,12.73
2022-10-02T04:18:27.644Z,10.32
2022-10-02T04:20:59.401Z,10.40
2022-10-02T04:23:32.533Z,11.43
2022-10-02T04:26:04.819Z,9.57
2022-10-02T04:28:38.606Z,9.52
2022-10-02T04:31:13.194Z,9.55
2022-10-02T04:33:41.669Z,9.00
2022-10-02T04:36:28.183Z,9.80
2022-10-02T04:39:28.519Z,9.77
2022-10-02T04:42:10.405Z,10.18
2022-10-02T04:44:54.755Z,9.98
2022-10-02T04:47:47.261Z,9.32
2022-10-02T04:50:32.762Z,9.38
2022-10-02T04:53:17.340Z,10.00
2022-10-02T04:56:03.651Z,9.95
2022-10-02T04:58:47.065Z,10.95
2022-10-02T05:01:27.359Z,10.93
2022-10-02T05:04:14.191Z,10.98
2022-10-02T05:07:05.651Z,10.80
2022-10-02T05:09:40.217Z,12.15
2022-10-02T05:12:31.748Z,13.73
2022-10-02T05:15:41.895Z,13.35
2022-10-02T05:18:30.656Z,13.13
2022-10-02T05:21:14.233Z,13.80
2022-10-02T05:23:57.210Z,12.93
2022-10-02T05:26:36.612Z,13.35
2022-10-02T05:29:17.000Z,16.57
2022-10-02T05:32:04.050Z,16.88
2022-10-02T05:34:49.574Z,16.17
2022-10-02T05:37:43.850Z,16.38
2022-10-02T05:40:19.269Z,17.88
2022-10-02T05:42:54.188Z,18.60
2022-10-02T05:45:28.382Z,19.50
2022-10-02T05:48:04.586Z,10.25
2022-10-02T05:50:36.551Z,10.20
2022-10-02T05:53:12.157Z,10.85
2022-10-02T05:55:47.971Z,10.57
2022-10-02T05:58:22.324Z,10.20
2022-10-02T06:00:56.299Z,9.80
2022-10-02T06:03:33.402Z,8.27
2022-10-02T06:06:09.583Z,10.38
2022-10-02T06:08:43.738Z,10.77
2022-10-02T06:11:17.081Z,9.18
2022-10-02T06:13:52.764Z,11.40
2022-10-02T06:16:25.641Z,10.77
2022-10-02T06:18:58.102Z,11.70
2022-10-02T06:21:33.345Z,9.65
2022-10-02T06:24:12.140Z,9.93
2022-10-02T06:26:46.820Z,10.43
2022-10-02T06:29:26.860Z,8.93
2022-10-02T06:34:30.039Z,8.70
2022-10-02T06:37:15.596Z,9.57
2022-10-02T06:40:04.574Z,9.73
2022-10-02T06:42:43.240Z,9.88
2022-10-02T06:45:23.951Z,10.32
2022-10-02T06:48:03.044Z,11.00
2022-10-02T06:50:41.123Z,10.32
2022-10-02T06:53:21.196Z,10.63
2022-10-02T06:56:01.350Z,10.57
2022-10-02T06:58:45.660Z,8.40
2022-10-02T07:01:25.068Z,6.60
2022-10-02T07:04:09.707Z,5.65
2022-10-02T07:06:47.454Z,6.35
2022-10-02T07:09:55.889Z,6.70
2022-10-02T07:13:06.251Z,6.65
2022-10-02T07:15:58.129Z,6.65
2022-10-02T07:18:42.765Z,8.23
2022-10-02T07:21:20.229Z,7.35
2022-10-02T07:24:00.067Z,8.65
2022-10-02T07:26:47.995Z,8.20
2022-10-02T07:29:32.427Z,9.32
2022-10-02T07:32:35.571Z,10.77
2022-10-02T07:35:18.115Z,11.65
2022-10-02T07:37:58.791Z,13.00
2022-10-02T07:40:37.764Z,14.73
2022-10-02T07:43:23.320Z,17.17
2022-10-02T07:45:57.678Z,19.92
2022-10-02T07:48:52.964Z,19.55
2022-10-02T07:51:50.009Z,24.70
2022-10-02T07:54:43.863Z,26.70
2022-10-02T07:57:33.991Z,29.67
2022-10-02T08:00:06.505Z,34.78
2022-10-02T08:02:40.723Z,36.63
2022-10-02T08:05:19.680Z,38.60
2022-10-02T08:07:50.966Z,41.60
2022-10-02T08:10:25.835Z,41.65
2022-10-02T08:13:04.276Z,42.35
2022-10-02T08:15:38.637Z,40.67
2022-10-02T08:18:33.582Z,41.00
2022-10-02T08:21:05.562Z,38.72
2022-10-02T08:23:40.463Z,36.70
2022-10-02T08:26:13.820Z,36.13
2022-10-02T08:28:48.018Z,33.72
2022-10-02T08:31:16.284Z,31.65
2022-10-02T08:33:44.272Z,32.80
2022-10-02T08:36:38.879Z,31.90
2022-10-02T08:39:22.081Z,31.40
2022-10-02T08:42:26.037Z,28.98
2022-10-02T08:45:22.816Z,27.88
2022-10-02T08:48:35.389Z,31.23
2022-10-02T08:51:26.604Z,30.60
2022-10-02T08:54:24.469Z,30.42
2022-10-02T08:57:07.863Z,29.17
2022-10-02T09:00:10.423Z,28.25
2022-10-02T09:03:11.297Z,29.15
2022-10-02T09:06:20.554Z,27.95
2022-10-02T09:09:24.555Z,26.45
2022-10-02T09:14:34.835Z,25.58
2022-10-02T09:17:16.492Z,25.45
2022-10-02T09:19:57.091Z,27.70
2022-10-02T09:22:58.950Z,26.42
2022-10-02T09:25:37.859Z,24.55
2022-10-02T09:28:52.488Z,23.45
2022-10-02T09:31:55.825Z,26.50
2022-10-02T09:35:14.232Z,26.75
2022-10-02T09:38:24.568Z,23.02
2022-10-02T09:41:33.866Z,24.48
2022-10-02T09:44:34.216Z,22.05
2022-10-02T09:48:05.142Z,25.25
2022-10-02T09:51:09.461Z,20.13
2022-10-02T09:54:10.147Z,18.75
2022-10-02T09:57:07.008Z,19.80
2022-10-02T10:00:03.948Z,18.63
2022-10-02T10:03:10.413Z,19.30
2022-10-02T10:06:00.411Z,21.13
2022-10-02T10:08:52.752Z,20.23
2022-10-02T10:11:47.800Z,19.73
2022-10-02T10:15:08.629Z,18.85
2022-10-02T10:18:18.265Z,20.27
2022-10-02T10:21:21.529Z,19.42
2022-10-02T10:24:24.324Z,19.25
2022-10-02T10:27:11.756Z,17.40
2022-10-02T10:30:13.271Z,19.10
2022-10-02T10:33:08.242Z,17.50
2022-10-02T10:36:00.021Z,17.48
2022-10-02T10:38:46.347Z,17.15
2022-10-02T10:41:47.395Z,18.02
2022-10-02T10:44:38.347Z,15.75
2022-10-02T10:47:24.828Z,15.52
2022-10-02T10:50:25.069Z,14.93
2022-10-02T10:53:30.525Z,14.55
2022-10-02T10:56:22.013Z,14.73
2022-10-02T10:59:09.795Z,13.70
2022-10-02T11:01:49.887Z,15.57
2022-10-02T11:04:39.357Z,15.88
2022-10-02T11:07:35.134Z,14.10
2022-10-02T11:10:22.786Z,15.13
2022-10-02T11:13:09.868Z,16.73
2022-10-02T11:16:09.130Z,17.60
2022-10-02T11:18:48.955Z,15.43
2022-10-02T11:21:35.235Z,15.60
2022-10-02T11:24:22.950Z,17.90
2022-10-02T11:27:04.959Z,15.45
2022-10-02T11:29:56.566Z,15.85
2022-10-02T11:32:51.425Z,15.60
2022-10-02T11:35:26.039Z,14.93
2022-10-02T11:38:16.203Z,14.07
2022-10-02T11:41:07.456Z,15.38
2022-10-02T11:44:01.373Z,15.63
2022-10-02T11:47:12.021Z,15.43
2022-10-02T11:52:47.994Z,14.88
2022-10-02T11:55:30.207Z,14.32
2022-10-02T11:58:12.353Z,14.95
2022-10-02T12:01:07.408Z,15.25
2022-10-02T12:03:50.289Z,15.57
2022-10-02T12:06:33.663Z,14.35
2022-10-02T12:09:10.087Z,15.80
2022-10-02T12:11:43.383Z,16.02
2022-10-02T12:14:21.387Z,15.90
2022-10-02T12:17:12.006Z,15.27
2022-10-02T12:22:58.386Z,14.55
2022-10-02T12:25:51.197Z,14.05
2022-10-02T12:28:29.648Z,13.18
2022-10-02T12:31:06.979Z,14.13
2022-10-02T12:33:44.136Z,13.60
2022-10-02T12:36:34.877Z,13.73
2022-10-02T12:39:21.293Z,13.50
2022-10-02T12:42:04.908Z,12.93
2022-10-02T12:44:47.732Z,12.65
2022-10-02T12:47:42.187Z,13.98
2022-10-02T12:50:24.471Z,13.20
2022-10-02T12:53:29.153Z,13.80
2022-10-02T12:56:16.645Z,12.65
2022-10-02T12:58:57.136Z,13.32
2022-10-02T13:04:38.149Z,13.45
2022-10-02T13:07:48.810Z,11.80
2022-10-02T13:13:05.510Z,12.27
2022-10-02T13:15:43.154Z,12.60
2022-10-02T13:18:28.781Z,12.27
2022-10-02T13:21:06.162Z,11.18
2022-10-02T13:23:45.450Z,11.13
2022-10-02T13:26:23.612Z,11.35
2022-10-02T13:29:24.348Z,12.00
2022-10-02T13:32:22.943Z,12.00
2022-10-02T13:35:04.420Z,11.27
2022-10-02T13:37:45.300Z,11.18
2022-10-02T13:40:26.115Z,10.90
2022-10-02T13:43:26.948Z,10.65
2022-10-02T13:46:04.913Z,11.85
2022-10-02T13:48:45.822Z,11.90
2022-10-02T13:51:23.078Z,11.13
2022-10-02T13:54:29.613Z,11.15
2022-10-02T13:57:06.813Z,10.60
2022-10-02T14:00:02.165Z,11.70
2022-10-02T14:02:46.733Z,10.32
2022-10-02T14:05:28.564Z,10.20
2022-10-02T14:08:13.876Z,10.93
2022-10-02T14:10:53.487Z,11.25
2022-10-02T14:13:38.156Z,13.17
2022-10-02T14:16:22.023Z,11.52
2022-10-02T14:19:11.218Z,11.18
2022-10-02T14:21:46.331Z,11.05
2022-10-02T14:24:54.655Z,11.70
2022-10-02T14:28:06.997Z,11.40
2022-10-02T14:30:48.527Z,10.23
2022-10-02T14:33:27.276Z,11.38
2022-10-02T14:36:07.219Z,11.80
2022-10-02T14:38:49.510Z,11.05
2022-10-02T14:41:50.479Z,11.70
2022-10-02T14:44:35.965Z,11.32
2022-10-02T14:47:22.420Z,12.43
2022-10-02T14:50:11.903Z,10.40
2022-10-02T14:52:53.601Z,11.70
2022-10-02T14:55:37.398Z,11.30
2022-10-02T14:58:18.180Z,11.25
2022-10-02T15:00:58.374Z,10.90
2022-10-02T15:03:48.769Z,11.32
2022-10-02T15:06:27.185Z,12.80
2022-10-02T15:09:02.188Z,11.90
2022-10-02T15:11:54.552Z,12.63
2022-10-02T15:14:29.754Z,12.48
2022-10-02T15:17:19.543Z,14.20
2022-10-02T15:19:52.097Z,12.60
2022-10-02T15:22:25.618Z,14.18
2022-10-02T15:24:59.088Z,13.05
2022-10-02T15:27:32.720Z,12.63
2022-10-02T15:30:13.193Z,13.88
2022-10-02T15:35:40.895Z,13.43
2022-10-02T15:38:25.188Z,13.93
2022-10-02T15:41:19.480Z,13.32
2022-10-02T15:43:57.351Z,15.20
2022-10-02T15:46:35.466Z,15.05
2022-10-02T15:49:12.909Z,16.55
2022-10-02T15:51:59.543Z,16.27
2022-10-02T15:54:38.807Z,18.67
2022-10-02T15:57:22.453Z,17.17
2022-10-02T16:00:11.154Z,19.60
2022-10-02T16:03:01.094Z,17.45
2022-10-02T16:05:50.329Z,18.83
2022-10-02T16:08:36.802Z,17.75
2022-10-02T16:11:21.129Z,17.85
2022-10-02T16:14:00.403Z,16.00
2022-10-02T16:17:03.003Z,18.25
2022-10-02T16:19:49.228Z,15.82
2022-10-02T16:22:33.481Z,18.13
2022-10-02T16:25:21.077Z,16.45
2022-10-02T16:27:54.236Z,17.13
2022-10-02T16:30:25.044Z,17.42
2022-10-02T16:33:11.235Z,18.50
2022-10-02T16:35:59.611Z,18.98
2022-10-02T16:38:42.673Z,18.67
2022-10-02T16:41:37.061Z,18.48
2022-10-02T16:44:24.428Z,20.10
2022-10-02T16:46:59.884Z,19.33
2022-10-02T16:49:34.723Z,20.35
2022-10-02T16:52:11.643Z,19.38
2022-10-02T16:54:46.070Z,20.23
2022-10-02T16:57:29.350Z,19.88
2022-10-02T17:00:06.172Z,19.40
2022-10-02T17:02:46.115Z,19.77
2022-10-02T17:05:24.827Z,19.80
2022-10-02T17:08:02.505Z,21.60
2022-10-02T17:10:39.537Z,20.45
2022-10-02T17:13:28.930Z,22.73
2022-10-02T17:16:06.391Z,20.08
2022-10-02T17:18:43.530Z,21.45
2022-10-02T17:21:17.135Z,22.25
2022-10-02T17:23:54.662Z,21.00
2022-10-02T17:26:33.451Z,20.55
2022-10-02T17:29:08.626Z,21.95
2022-10-02T17:31:46.193Z,20.02
2022-10-02T17:34:21.274Z,20.73
2022-10-02T17:36:57.994Z,20.85
2022-10-02T17:39:52.428Z,19.75
2022-10-02T17:42:30.544Z,19.92
2022-10-02T17:45:09.490Z,21.05
2022-10-02T17:47:54.183Z,22.92
2022-10-02T17:50:39.281Z,21.02
2022-10-02T17:53:41.272Z,19.15
2022-10-02T17:56:31.197Z,18.58
2022-10-02T17:59:21.538Z,18.55
2022-10-02T18:02:02.185Z,21.02
2022-10-02T18:04:41.860Z,18.48
2022-10-02T18:07:41.714Z,17.97
2022-10-02T18:10:25.834Z,21.38
2022-10-02T18:13:07.807Z,20.60
2022-10-02T18:16:02.214Z,19.55
2022-10-02T18:18:39.008Z,18.15
2022-10-02T18:21:28.126Z,18.98
2022-10-02T18:24:21.198Z,17.83
2022-10-02T18:27:14.464Z,18.23
2022-10-02T18:29:59.695Z,19.50
2022-10-02T18:32:48.622Z,18.40
2022-10-02T18:35:33.117Z,18.65
2022-10-02T18:38:13.539Z,17.45
2022-10-02T18:43:47.781Z,18.05
2022-10-02T18:46:27.490Z,19.00
2022-10-02T18:49:08.617Z,20.67
2022-10-02T18:52:16.739Z,19.27
2022-10-02T18:54:55.963Z,20.27
2022-10-02T18:57:47.825Z,19.50
2022-10-02T19:00:21.490Z,20.40
2022-10-02T19:03:19.961Z,22.08
2022-10-02T19:05:52.049Z,22.73
2022-10-02T19:08:25.830Z,19.38
2022-10-02T19:10:54.093Z,20.67
2022-10-02T19:13:27.421Z,19.58
2022-10-02T19:15:58.368Z,22.77
2022-10-02T19:18:27.877Z,27.85
2022-10-02T19:21:00.264Z,27.88
2022-10-02T19:23:32.602Z,28.10
2022-10-02T19:26:06.006Z,27.88
2022-10-02T19:28:45.546Z,28.00
2022-10-02T19:31:14.218Z,26.87
2022-10-02T19:33:49.895Z,25.50
2022-10-02T19:36:21.178Z,25.52
2022-10-02T19:38:55.635Z,19.35
2022-10-02T19:41:24.291Z,23.15
2022-10-02T19:43:59.008Z,23.95
2022-10-02T19:46:35.669Z,21.60
2022-10-02T19:49:04.275Z,25.63
2022-10-02T19:51:43.340Z,22.98
2022-10-02T19:54:17.381Z,24.70
2022-10-02T19:56:46.651Z,24.38
2022-10-02T19:59:19.612Z,25.33
2022-10-02T20:01:51.720Z,25.02
2022-10-02T20:04:21.817Z,23.33
2022-10-02T20:06:53.137Z,27.02
2022-10-02T20:09:26.402Z,24.63
2022-10-02T20:11:58.822Z,27.80
2022-10-02T20:14:32.415Z,28.25
2022-10-02T20:17:11.125Z,26.35
2022-10-02T20:19:45.281Z,26.00
2022-10-02T20:22:19.134Z,26.60
2022-10-02T20:24:52.005Z,28.73
2022-10-02T20:27:25.635Z,27.30
2022-10-02T20:30:00.992Z,29.58
2022-10-02T20:32:33.270Z,29.17
2022-10-02T20:35:08.414Z,26.52
2022-10-02T20:37:37.503Z,29.63
2022-10-02T20:40:13.920Z,26.70
2022-10-02T20:42:48.523Z,25.85
2022-10-02T20:45:18.228Z,27.02
2022-10-02T20:48:35.781Z,24.58
2022-10-02T20:51:18.351Z,26.15
2022-10-02T20:54:18.630Z,27.33
2022-10-02T20:57:37.968Z,26.27
2022-10-02T21:00:18.763Z,28.63
2022-10-02T21:03:11.979Z,32.50
2022-10-02T21:06:18.533Z,28.75
2022-10-02T21:09:12.567Z,30.73
2022-10-02T21:12:03.141Z,30.50
2022-10-02T21:14:53.905Z,29.63
2022-10-02T21:17:57.066Z,30.13
2022-10-02T21:21:13.474Z,26.73
2022-10-02T21:24:21.840Z,28.55
2022-10-02T21:27:14.618Z,29.38
2022-10-02T21:30:05.563Z,28.33
2022-10-02T21:33:03.292Z,28.48
2022-10-02T21:35:41.974Z,26.75
2022-10-02T21:38:58.842Z,27.40
2022-10-02T21:41:55.194Z,25.65
2022-10-02T21:45:06.196Z,29.63
2022-10-02T21:48:13.911Z,29.65
2022-10-02T21:51:21.390Z,25.40
2022-10-02T21:54:31.190Z,26.95
2022-10-02T21:57:33.455Z,24.90
2022-10-02T22:00:14.302Z,23.88
2022-10-02T22:03:12.381Z,27.15
2022-10-02T22:06:16.559Z,28.80
2022-10-02T22:08:56.948Z,25.48
2022-10-02T22:11:34.433Z,24.98
2022-10-02T22:14:10.123Z,26.40
2022-10-02T22:16:47.391Z,28.45
2022-10-02T22:19:32.707Z,26.00
2022-10-02T22:22:15.471Z,25.75
2022-10-02T22:25:02.900Z,22.80
2022-10-02T22:27:51.124Z,25.67
2022-10-02T22:30:25.388Z,23.70
2022-10-02T22:33:13.555Z,24.17
2022-10-02T22:36:20.417Z,22.73
2022-10-02T22:38:54.883Z,24.65
2022-10-02T22:41:29.435Z,22.92
2022-10-02T22:44:01.904Z,24.70
2022-10-02T22:46:41.130Z,23.83
2022-10-02T22:49:19.504Z,25.53
2022-10-02T22:51:57.975Z,24.05
2022-10-02T22:54:36.664Z,22.50
2022-10-02T22:57:16.822Z,23.33
2022-10-02T22:59:52.406Z,24.42
2022-10-02T23:02:26.078Z,23.48
2022-10-02T23:05:01.551Z,25.23
2022-10-02T23:07:35.744Z,25.98
2022-10-02T23:10:18.809Z,26.55
2022-10-02T23:12:58.677Z,21.58
2022-10-02T23:15:35.872Z,24.38
2022-10-02T23:18:07.287Z,20.30
2022-10-02T23:20:39.220Z,23.88
2022-10-02T23:23:16.617Z,25.77
2022-10-02T23:25:53.653Z,25.67
2022-10-02T23:28:27.663Z,23.90
2022-10-02T23:31:06.374Z,24.83
2022-10-02T23:33:46.130Z,22.52
2022-10-02T23:36:24.222Z,20.10
2022-10-02T23:39:00.136Z,20.48
2022-10-02T23:41:46.475Z,18.85
2022-10-02T23:44:25.627Z,18.30
2022-10-02T23:47:10.128Z,22.58
2022-10-02T23:49:40.819Z,20.60
2022-10-02T23:52:41.206Z,19.75
2022-10-02T23:55:44.241Z,18.08
2022-10-02T23:58:43.901Z,18.33
